Hovedside
METAR-TAF:

METAR-TAF

Lufthavner :

Antonio B. Won Pat internasjonale lufthavn

Hagåtña, Guam, USA

breddegrad: 13-29N, lengdegrad: 144-48E, høyde over havet: 91 m

Gjeldene værobservasjon

Denne rapporten ble laget for 48 minutter siden, klokken 23:54 UTC
Vind 18 kt fra Øst-nordøst
Temperatur 28°C
Luftfuktighet 62%
Trykk 1015 hPa
Sikt: 16.1 km
Skyfri himmel

METAR: PGUM 282354Z 07018KT 10SM CLR 28/20 A2997 RMK AO2 SLP139 T02830200 10283 20244 51011

Tid: 10:42 (00:42 UTC)

Varsel

Denne rapporten ble laget for 1 time og 7 minutter siden, klokken 23:35 UTC
Varsel gyldig fra 29. klokken 00 UTC til 01. klokken 06 UTC
Vind 11 kt fra Øst-nordøst med vindkast opp mot 18 kt
Sikt: 10 km
Få skyer i en høyde av 2500 ft
Få skyer i en høyde av 6000 ft
Fra 29. klokken 0800 UTC
Vind 9 kt fra Øst-nordøst
Sikt: 10 km
Få skyer i en høyde av 2500 ft
Få skyer i en høyde av 6000 ft

TAF: PGUM 282335Z 2900/0106 06011G18KT P6SM FEW025 FEW060 FM290800 06009KT P6SM FEW025 FEW060

Værobservasjoner og værvarsel for over 4000 flyplasser (METAR- og TAF-rapporter).

Tilgjengelige stasjoner er representert av de røde og gule prikkene på kartet.

Hold musepekeren over prikken for å se navnet på stasjonen.

Klikk så for å se værobservasjoner og -varsler.

For å forandre kartet kan du klikke på den grønne knappen med svart kryss for å zoome inn, på den grønne knappen med strek for å zoome ut, eller på de grønne pilene for å se tilstøtende kart.


METAR-TAF: